sensor_id;sensor_type;location;lat;lon;timestamp;pressure;altitude;pressure_sealevel;temperature;humidity
34185;BME280;20454;48.100;11.776;2022-08-21T00:02:18;95519.94;;;17.04;100.00
34185;BME280;20454;48.100;11.776;2022-08-21T00:04:44;95515.47;;;17.03;100.00
34185;BME280;20454;48.100;11.776;2022-08-21T00:07:10;95519.03;;;17.00;100.00
34185;BME280;20454;48.100;11.776;2022-08-21T00:09:37;95519.84;;;17.00;100.00
34185;BME280;20454;48.100;11.776;2022-08-21T00:12:04;95518.69;;;17.01;100.00
34185;BME280;20454;48.100;11.776;2022-08-21T00:14:31;95512.50;;;16.96;100.00
34185;BME280;20454;48.100;11.776;2022-08-21T00:16:57;95516.94;;;16.97;100.00
34185;BME280;20454;48.100;11.776;2022-08-21T00:19:23;95505.59;;;16.93;100.00
34185;BME280;20454;48.100;11.776;2022-08-21T00:21:52;95510.31;;;16.89;100.00
34185;BME280;20454;48.100;11.776;2022-08-21T00:24:20;95511.50;;;16.88;100.00
34185;BME280;20454;48.100;11.776;2022-08-21T00:26:47;95515.84;;;16.86;100.00
34185;BME280;20454;48.100;11.776;2022-08-21T00:29:13;95512.13;;;16.82;100.00
34185;BME280;20454;48.100;11.776;2022-08-21T00:31:40;95512.03;;;16.78;100.00
34185;BME280;20454;48.100;11.776;2022-08-21T00:34:07;95519.28;;;16.79;100.00
34185;BME280;20454;48.100;11.776;2022-08-21T00:36:34;95520.09;;;16.80;100.00
34185;BME280;20454;48.100;11.776;2022-08-21T00:39:00;95515.56;;;16.75;100.00
34185;BME280;20454;48.100;11.776;2022-08-21T00:41:27;95516.75;;;16.74;100.00
34185;BME280;20454;48.100;11.776;2022-08-21T00:43:54;95513.84;;;16.71;100.00
34185;BME280;20454;48.100;11.776;2022-08-21T00:46:20;95514.66;;;16.71;100.00
34185;BME280;20454;48.100;11.776;2022-08-21T00:48:46;95506.50;;;16.66;100.00
34185;BME280;20454;48.100;11.776;2022-08-21T00:51:28;95508.03;;;16.64;100.00
34185;BME280;20454;48.100;11.776;2022-08-21T00:53:59;95506.31;;;16.59;100.00
34185;BME280;20454;48.100;11.776;2022-08-21T00:56:26;95506.66;;;16.58;100.00
34185;BME280;20454;48.100;11.776;2022-08-21T00:58:54;95504.22;;;16.56;100.00
34185;BME280;20454;48.100;11.776;2022-08-21T01:01:21;95502.03;;;16.50;100.00
34185;BME280;20454;48.100;11.776;2022-08-21T01:03:47;95500.84;;;16.51;100.00
34185;BME280;20454;48.100;11.776;2022-08-21T01:06:13;95501.56;;;16.48;100.00
34185;BME280;20454;48.100;11.776;2022-08-21T01:08:39;95498.66;;;16.44;100.00
34185;BME280;20454;48.100;11.776;2022-08-21T01:11:05;95496.56;;;16.41;100.00
34185;BME280;20454;48.100;11.776;2022-08-21T01:13:34;95484.91;;;16.39;100.00
34185;BME280;20454;48.100;11.776;2022-08-21T01:16:04;95488.38;;;16.36;100.00
34185;BME280;20454;48.100;11.776;2022-08-21T01:18:33;95483.50;;;16.33;100.00
34185;BME280;20454;48.100;11.776;2022-08-21T01:21:15;95491.09;;;16.33;100.00
34185;BME280;20454;48.100;11.776;2022-08-21T01:23:46;95490.63;;;16.31;100.00
34185;BME280;20454;48.100;11.776;2022-08-21T01:26:17;95490.53;;;16.27;100.00
34185;BME280;20454;48.100;11.776;2022-08-21T01:28:59;95495.31;;;16.27;100.00
34185;BME280;20454;48.100;11.776;2022-08-21T01:31:28;95486.34;;;16.21;100.00
34185;BME280;20454;48.100;11.776;2022-08-21T01:33:56;95485.06;;;16.19;100.00
34185;BME280;20454;48.100;11.776;2022-08-21T01:36:23;95482.16;;;16.15;100.00
34185;BME280;20454;48.100;11.776;2022-08-21T01:38:49;95493.75;;;16.14;100.00
34185;BME280;20454;48.100;11.776;2022-08-21T01:41:15;95495.75;;;16.13;100.00
34185;BME280;20454;48.100;11.776;2022-08-21T01:43:43;95488.03;;;16.10;100.00
34185;BME280;20454;48.100;11.776;2022-08-21T01:46:11;95494.81;;;16.09;100.00
34185;BME280;20454;48.100;11.776;2022-08-21T01:48:37;95495.66;;;16.10;100.00
34185;BME280;20454;48.100;11.776;2022-08-21T01:51:04;95494.38;;;16.07;100.00
34185;BME280;20454;48.100;11.776;2022-08-21T01:53:30;95495.53;;;16.06;100.00
34185;BME280;20454;48.100;11.776;2022-08-21T01:55:56;95487.81;;;16.03;100.00
34185;BME280;20454;48.100;11.776;2022-08-21T01:58:22;95491.09;;;16.05;100.00
34185;BME280;20454;48.100;11.776;2022-08-21T02:00:48;95483.75;;;16.01;100.00
34185;BME280;20454;48.100;11.776;2022-08-21T02:03:14;95484.91;;;16.00;100.00
34185;BME280;20454;48.100;11.776;2022-08-21T02:05:40;95492.97;;;16.01;100.00
34185;BME280;20454;48.100;11.776;2022-08-21T02:08:07;95484.00;;;15.96;100.00
34185;BME280;20454;48.100;11.776;2022-08-21T02:10:33;95485.97;;;15.95;100.00
34185;BME280;20454;48.100;11.776;2022-08-21T02:13:00;95481.53;;;15.94;100.00
34185;BME280;20454;48.100;11.776;2022-08-21T02:15:27;95484.00;;;15.96;100.00
34185;BME280;20454;48.100;11.776;2022-08-21T02:18:00;95477.94;;;15.94;100.00
34185;BME280;20454;48.100;11.776;2022-08-21T02:20:39;95477.47;;;15.92;100.00
34185;BME280;20454;48.100;11.776;2022-08-21T02:23:08;95479.09;;;15.93;100.00
34185;BME280;20454;48.100;11.776;2022-08-21T02:25:35;95479.47;;;15.91;100.00
34185;BME280;20454;48.100;11.776;2022-08-21T02:28:07;95477.47;;;15.92;100.00
34185;BME280;20454;48.100;11.776;2022-08-21T02:30:37;95478.53;;;15.87;100.00
34185;BME280;20454;48.100;11.776;2022-08-21T02:33:04;95477.75;;;15.87;100.00
34185;BME280;20454;48.100;11.776;2022-08-21T02:35:30;95471.19;;;15.83;100.00
34185;BME280;20454;48.100;11.776;2022-08-21T02:38:01;95471.53;;;15.81;100.00
34185;BME280;20454;48.100;11.776;2022-08-21T02:40:32;95476.25;;;15.77;100.00
34185;BME280;20454;48.100;11.776;2022-08-21T02:42:59;95464.31;;;15.68;100.00
34185;BME280;20454;48.100;11.776;2022-08-21T02:45:26;95471.59;;;15.69;100.00
34185;BME280;20454;48.100;11.776;2022-08-21T02:48:00;95468.31;;;15.67;100.00
34185;BME280;20454;48.100;11.776;2022-08-21T02:50:36;95466.69;;;15.66;100.00
34185;BME280;20454;48.100;11.776;2022-08-21T02:53:03;95465.06;;;15.65;100.00
34185;BME280;20454;48.100;11.776;2022-08-21T02:55:33;95469.03;;;15.64;100.00
34185;BME280;20454;48.100;11.776;2022-08-21T02:58:04;95472.19;;;15.63;100.00
34185;BME280;20454;48.100;11.776;2022-08-21T03:00:31;95468.09;;;15.60;100.00
34185;BME280;20454;48.100;11.776;2022-08-21T03:02:59;95471.63;;;15.57;100.00
34185;BME280;20454;48.100;11.776;2022-08-21T03:05:27;95475.59;;;15.56;100.00
34185;BME280;20454;48.100;11.776;2022-08-21T03:07:54;95469.88;;;15.53;100.00
34185;BME280;20454;48.100;11.776;2022-08-21T03:10:22;95476.78;;;15.55;100.00
34185;BME280;20454;48.100;11.776;2022-08-21T03:12:48;95477.22;;;15.57;100.00
34185;BME280;20454;48.100;11.776;2022-08-21T03:15:18;95474.66;;;15.52;100.00
34185;BME280;20454;48.100;11.776;2022-08-21T03:17:45;95468.94;;;15.49;100.00
34185;BME280;20454;48.100;11.776;2022-08-21T03:20:12;95467.66;;;15.46;100.00
34185;BME280;20454;48.100;11.776;2022-08-21T03:22:40;95472.81;;;15.44;100.00
34185;BME280;20454;48.100;11.776;2022-08-21T03:25:06;95463.94;;;15.42;100.00
34185;BME280;20454;48.100;11.776;2022-08-21T03:27:34;95468.72;;;15.42;100.00
34185;BME280;20454;48.100;11.776;2022-08-21T03:30:00;95469.44;;;15.39;100.00
34185;BME280;20454;48.100;11.776;2022-08-21T03:32:27;95469.78;;;15.37;100.00
34185;BME280;20454;48.100;11.776;2022-08-21T03:34:53;95470.97;;;15.36;100.00
34185;BME280;20454;48.100;11.776;2022-08-21T03:37:18;95466.06;;;15.33;100.00
34185;BME280;20454;48.100;11.776;2022-08-21T03:39:45;95466.75;;;15.30;100.00
34185;BME280;20454;48.100;11.776;2022-08-21T03:42:11;95475.16;;;15.30;100.00
34185;BME280;20454;48.100;11.776;2022-08-21T03:44:37;95480.66;;;15.27;100.00
34185;BME280;20454;48.100;11.776;2022-08-21T03:47:05;95477.84;;;15.27;100.00
34185;BME280;20454;48.100;11.776;2022-08-21T03:49:31;95483.78;;;15.25;100.00
34185;BME280;20454;48.100;11.776;2022-08-21T03:51:57;95491.41;;;15.25;100.00
34185;BME280;20454;48.100;11.776;2022-08-21T03:54:23;95490.22;;;15.26;100.00
34185;BME280;20454;48.100;11.776;2022-08-21T03:56:49;95488.94;;;15.23;100.00
34185;BME280;20454;48.100;11.776;2022-08-21T03:59:15;95488.59;;;15.25;100.00
34185;BME280;20454;48.100;11.776;2022-08-21T04:01:55;95482.38;;;15.19;100.00
34185;BME280;20454;48.100;11.776;2022-08-21T04:04:22;95480.31;;;15.16;100.00
34185;BME280;20454;48.100;11.776;2022-08-21T04:06:47;95480.31;;;15.16;100.00
34185;BME280;20454;48.100;11.776;2022-08-21T04:09:13;95492.69;;;15.15;100.00
34185;BME280;20454;48.100;11.776;2022-08-21T04:11:39;95488.94;;;15.11;100.00
34185;BME280;20454;48.100;11.776;2022-08-21T04:14:05;95487.78;;;15.12;100.00
34185;BME280;20454;48.100;11.776;2022-08-21T04:16:31;95483.69;;;15.10;100.00
34185;BME280;20454;48.100;11.776;2022-08-21T04:18:57;95485.56;;;15.06;100.00
34185;BME280;20454;48.100;11.776;2022-08-21T04:21:23;95482.88;;;15.09;100.00
34185;BME280;20454;48.100;11.776;2022-08-21T04:23:49;95492.47;;;15.08;100.00
34185;BME280;20454;48.100;11.776;2022-08-21T04:26:15;95498.88;;;15.09;100.00
34185;BME280;20454;48.100;11.776;2022-08-21T04:28:41;95509.63;;;15.07;100.00
34185;BME280;20454;48.100;11.776;2022-08-21T04:31:08;95514.50;;;15.10;100.00
34185;BME280;20454;48.100;11.776;2022-08-21T04:33:34;95515.69;;;15.09;100.00
34185;BME280;20454;48.100;11.776;2022-08-21T04:36:01;95513.38;;;15.11;100.00
34185;BME280;20454;48.100;11.776;2022-08-21T04:38:27;95521.41;;;15.12;100.00
34185;BME280;20454;48.100;11.776;2022-08-21T04:40:53;95521.06;;;15.14;100.00
34185;BME280;20454;48.100;11.776;2022-08-21T04:43:20;95527.00;;;15.12;100.00
34185;BME280;20454;48.100;11.776;2022-08-21T04:45:50;95523.03;;;15.13;100.00
34185;BME280;20454;48.100;11.776;2022-08-21T04:48:21;95529.13;;;15.15;100.00
34185;BME280;20454;48.100;11.776;2022-08-21T04:51:31;95530.75;;;15.16;100.00
34185;BME280;20454;48.100;11.776;2022-08-21T04:53:50;95521.53;;;15.16;100.00
34185;BME280;20454;48.100;11.776;2022-08-21T04:56:28;95523.97;;;15.17;100.00
34185;BME280;20454;48.100;11.776;2022-08-21T04:58:59;95519.88;;;15.15;100.00
34185;BME280;20454;48.100;11.776;2022-08-21T05:01:30;95522.00;;;15.18;100.00
34185;BME280;20454;48.100;11.776;2022-08-21T05:03:59;95525.25;;;15.20;100.00
34185;BME280;20454;48.100;11.776;2022-08-21T05:06:29;95526.91;;;15.21;100.00
34185;BME280;20454;48.100;11.776;2022-08-21T05:08:57;95535.19;;;15.29;100.00
34185;BME280;20454;48.100;11.776;2022-08-21T05:11:23;95528.91;;;15.32;100.00
34185;BME280;20454;48.100;11.776;2022-08-21T05:13:49;95518.97;;;15.35;100.00
34185;BME280;20454;48.100;11.776;2022-08-21T05:16:16;95529.63;;;15.41;100.00
34185;BME280;20454;48.100;11.776;2022-08-21T05:18:42;95527.63;;;15.42;100.00
34185;BME280;20454;48.100;11.776;2022-08-21T05:21:09;95527.03;;;15.48;100.00
34185;BME280;20454;48.100;11.776;2022-08-21T05:23:35;95526.31;;;15.51;100.00
34185;BME280;20454;48.100;11.776;2022-08-21T05:26:03;95529.69;;;15.57;100.00
34185;BME280;20454;48.100;11.776;2022-08-21T05:28:30;95532.59;;;15.60;100.00
34185;BME280;20454;48.100;11.776;2022-08-21T05:30:57;95526.19;;;15.60;100.00
34185;BME280;20454;48.100;11.776;2022-08-21T05:33:23;95529.91;;;15.64;100.00
34185;BME280;20454;48.100;11.776;2022-08-21T05:35:52;95535.75;;;15.71;100.00
34185;BME280;20454;48.100;11.776;2022-08-21T05:38:19;95536.22;;;15.73;100.00
34185;BME280;20454;48.100;11.776;2022-08-21T05:40:45;95540.78;;;15.77;100.00
34185;BME280;20454;48.100;11.776;2022-08-21T05:43:11;95545.31;;;15.82;100.00
34185;BME280;20454;48.100;11.776;2022-08-21T05:45:37;95545.44;;;15.85;100.00
34185;BME280;20454;48.100;11.776;2022-08-21T05:48:16;95542.00;;;15.92;100.00
34185;BME280;20454;48.100;11.776;2022-08-21T05:50:44;95536.38;;;15.92;100.00
34185;BME280;20454;48.100;11.776;2022-08-21T05:53:11;95540.69;;;16.01;100.00
34185;BME280;20454;48.100;11.776;2022-08-21T05:55:38;95544.06;;;16.07;100.00
34185;BME280;20454;48.100;11.776;2022-08-21T05:58:04;95541.00;;;16.12;100.00
34185;BME280;20454;48.100;11.776;2022-08-21T06:00:30;95542.41;;;16.18;100.00
34185;BME280;20454;48.100;11.776;2022-08-21T06:02:57;95551.38;;;16.23;100.00
34185;BME280;20454;48.100;11.776;2022-08-21T06:05:24;95545.16;;;16.30;100.00
34185;BME280;20454;48.100;11.776;2022-08-21T06:07:50;95549.34;;;16.36;100.00
34185;BME280;20454;48.100;11.776;2022-08-21T06:10:16;95548.75;;;16.42;100.00
34185;BME280;20454;48.100;11.776;2022-08-21T06:12:42;95543.25;;;16.46;100.00
34185;BME280;20454;48.100;11.776;2022-08-21T06:15:08;95538.16;;;16.51;100.00
34185;BME280;20454;48.100;11.776;2022-08-21T06:17:34;95543.53;;;16.56;100.00
34185;BME280;20454;48.100;11.776;2022-08-21T06:19:59;95552.50;;;16.62;100.00
34185;BME280;20454;48.100;11.776;2022-08-21T06:22:25;95545.84;;;16.66;100.00
34185;BME280;20454;48.100;11.776;2022-08-21T06:24:51;95547.91;;;16.69;100.00
34185;BME280;20454;48.100;11.776;2022-08-21T06:27:17;95556.53;;;16.76;100.00
34185;BME280;20454;48.100;11.776;2022-08-21T06:29:43;95542.25;;;16.81;100.00
34185;BME280;20454;48.100;11.776;2022-08-21T06:32:12;95544.06;;;16.89;100.00
34185;BME280;20454;48.100;11.776;2022-08-21T06:34:41;95544.94;;;16.93;100.00
34185;BME280;20454;48.100;11.776;2022-08-21T06:37:08;95548.59;;;16.94;100.00
34185;BME280;20454;48.100;11.776;2022-08-21T06:39:34;95539.50;;;17.00;100.00
34185;BME280;20454;48.100;11.776;2022-08-21T06:42:00;95550.41;;;17.02;100.00
34185;BME280;20454;48.100;11.776;2022-08-21T06:44:26;95548.59;;;17.09;100.00
34185;BME280;20454;48.100;11.776;2022-08-21T06:46:52;95545.97;;;17.16;100.00
34185;BME280;20454;48.100;11.776;2022-08-21T06:49:17;95545.31;;;17.23;100.00
34185;BME280;20454;48.100;11.776;2022-08-21T06:51:43;95535.00;;;17.27;100.00
34185;BME280;20454;48.100;11.776;2022-08-21T06:54:09;95544.78;;;17.33;100.00
34185;BME280;20454;48.100;11.776;2022-08-21T06:56:36;95535.28;;;17.37;100.00
34185;BME280;20454;48.100;11.776;2022-08-21T06:59:04;95530.94;;;17.40;100.00
34185;BME280;20454;48.100;11.776;2022-08-21T07:01:31;95532.75;;;17.48;100.00
34185;BME280;20454;48.100;11.776;2022-08-21T07:03:57;95531.38;;;17.57;99.94
34185;BME280;20454;48.100;11.776;2022-08-21T07:06:23;95530.63;;;17.60;99.83
34185;BME280;20454;48.100;11.776;2022-08-21T07:08:48;95527.09;;;17.63;100.00
34185;BME280;20454;48.100;11.776;2022-08-21T07:11:22;95527.97;;;17.67;100.00
34185;BME280;20454;48.100;11.776;2022-08-21T07:13:49;95525.59;;;17.69;98.19
34185;BME280;20454;48.100;11.776;2022-08-21T07:16:17;95516.88;;;17.74;96.33
34185;BME280;20454;48.100;11.776;2022-08-21T07:18:43;95526.69;;;17.80;95.71
34185;BME280;20454;48.100;11.776;2022-08-21T07:21:09;95520.75;;;17.85;94.63
34185;BME280;20454;48.100;11.776;2022-08-21T07:23:41;95522.47;;;17.90;94.76
34185;BME280;20454;48.100;11.776;2022-08-21T07:26:08;95524.19;;;17.94;95.35
34185;BME280;20454;48.100;11.776;2022-08-21T07:28:34;95521.53;;;18.01;95.92
34185;BME280;20454;48.100;11.776;2022-08-21T07:31:01;95521.59;;;18.05;96.54
34185;BME280;20454;48.100;11.776;2022-08-21T07:33:29;95521.16;;;18.03;92.12
34185;BME280;20454;48.100;11.776;2022-08-21T07:35:56;95524.06;;;18.06;90.72
34185;BME280;20454;48.100;11.776;2022-08-21T07:38:22;95524.50;;;18.08;89.75
34185;BME280;20454;48.100;11.776;2022-08-21T07:40:49;95524.72;;;18.19;89.38
34185;BME280;20454;48.100;11.776;2022-08-21T10:16:37;95446.97;;;24.16;61.42
34185;BME280;20454;48.100;11.776;2022-08-21T10:25:18;95436.75;;;25.76;51.61
34185;BME280;20454;48.100;11.776;2022-08-21T10:36:27;95432.09;;;24.87;56.96
34185;BME280;20454;48.100;11.776;2022-08-21T10:39:36;95440.38;;;25.77;54.97
34185;BME280;20454;48.100;11.776;2022-08-21T10:51:28;95421.22;;;24.61;57.06
34185;BME280;20454;48.100;11.776;2022-08-21T10:57:24;95424.25;;;24.09;58.00
34185;BME280;20454;48.100;11.776;2022-08-21T11:00:03;95432.44;;;23.93;58.72
34185;BME280;20454;48.100;11.776;2022-08-21T11:02:44;95429.97;;;23.84;58.67
34185;BME280;20454;48.100;11.776;2022-08-21T11:08:00;95417.41;;;23.75;60.59
34185;BME280;20454;48.100;11.776;2022-08-21T11:10:42;95419.00;;;23.76;60.05
34185;BME280;20454;48.100;11.776;2022-08-21T11:13:55;95422.25;;;23.81;59.81
34185;BME280;20454;48.100;11.776;2022-08-21T11:16:44;95418.22;;;23.79;58.80
34185;BME280;20454;48.100;11.776;2022-08-21T11:19:39;95422.25;;;23.78;60.08
34185;BME280;20454;48.100;11.776;2022-08-21T11:22:24;95419.84;;;23.76;60.97
34185;BME280;20454;48.100;11.776;2022-08-21T11:24:57;95419.41;;;23.78;60.73
34185;BME280;20454;48.100;11.776;2022-08-21T11:27:44;95412.94;;;23.77;61.74
34185;BME280;20454;48.100;11.776;2022-08-21T11:30:12;95412.13;;;23.70;61.63
34185;BME280;20454;48.100;11.776;2022-08-21T11:36:41;95401.50;;;24.98;62.88
34185;BME280;20454;48.100;11.776;2022-08-21T11:42:24;95377.06;;;28.18;51.52
34185;BME280;20454;48.100;11.776;2022-08-21T11:50:15;95375.44;;;30.42;43.05
34185;BME280;20454;48.100;11.776;2022-08-21T11:55:53;95372.50;;;31.40;40.11
34185;BME280;20454;48.100;11.776;2022-08-21T11:58:37;95361.69;;;31.57;40.03
34185;BME280;20454;48.100;11.776;2022-08-21T12:01:13;95369.38;;;31.22;39.81
34185;BME280;20454;48.100;11.776;2022-08-21T12:03:57;95377.38;;;30.01;41.49
34185;BME280;20454;48.100;11.776;2022-08-21T12:06:39;95374.09;;;28.83;43.33
34185;BME280;20454;48.100;11.776;2022-08-21T12:12:28;95372.09;;;27.53;45.98
34185;BME280;20454;48.100;11.776;2022-08-21T12:17:57;95358.50;;;28.65;44.57
34185;BME280;20454;48.100;11.776;2022-08-21T12:25:42;95340.16;;;31.61;37.80
34185;BME280;20454;48.100;11.776;2022-08-21T12:28:15;95344.78;;;32.30;37.82
34185;BME280;20454;48.100;11.776;2022-08-21T12:30:47;95349.88;;;32.69;36.91
34185;BME280;20454;48.100;11.776;2022-08-21T12:33:35;95349.72;;;32.85;36.12
34185;BME280;20454;48.100;11.776;2022-08-21T12:36:26;95351.09;;;31.79;37.20
34185;BME280;20454;48.100;11.776;2022-08-21T12:39:03;95347.56;;;30.55;38.44
34185;BME280;20454;48.100;11.776;2022-08-21T12:44:14;95356.28;;;28.33;42.38
34185;BME280;20454;48.100;11.776;2022-08-21T12:46:48;95345.66;;;28.14;43.55
34185;BME280;20454;48.100;11.776;2022-08-21T12:49:28;95337.03;;;28.37;43.58
34185;BME280;20454;48.100;11.776;2022-08-21T12:52:28;95336.50;;;27.80;42.40
34185;BME280;20454;48.100;11.776;2022-08-21T12:54:54;95340.22;;;27.01;44.43
34185;BME280;20454;48.100;11.776;2022-08-21T12:57:24;95339.44;;;26.41;46.89
34185;BME280;20454;48.100;11.776;2022-08-21T12:59:57;95350.59;;;25.95;48.02
34185;BME280;20454;48.100;11.776;2022-08-21T13:02:33;95347.31;;;25.60;50.26
34185;BME280;20454;48.100;11.776;2022-08-21T13:05:07;95343.88;;;25.35;50.67
34185;BME280;20454;48.100;11.776;2022-08-21T13:07:36;95346.47;;;25.12;49.15
34185;BME280;20454;48.100;11.776;2022-08-21T13:10:23;95343.94;;;25.72;50.88
34185;BME280;20454;48.100;11.776;2022-08-21T13:12:53;95337.00;;;26.10;48.99
34185;BME280;20454;48.100;11.776;2022-08-21T13:15:28;95327.34;;;26.30;48.58
34185;BME280;20454;48.100;11.776;2022-08-21T13:17:54;95327.63;;;26.43;44.19
34185;BME280;20454;48.100;11.776;2022-08-21T13:20:37;95325.44;;;26.54;43.72
34185;BME280;20454;48.100;11.776;2022-08-21T13:23:28;95326.28;;;26.80;47.82
34185;BME280;20454;48.100;11.776;2022-08-21T13:25:56;95322.13;;;27.11;47.27
34185;BME280;20454;48.100;11.776;2022-08-21T13:28:22;95312.88;;;27.76;44.27
34185;BME280;20454;48.100;11.776;2022-08-21T13:30:53;95309.91;;;28.42;43.25
34185;BME280;20454;48.100;11.776;2022-08-21T13:33:23;95303.59;;;29.05;42.73
34185;BME280;20454;48.100;11.776;2022-08-21T13:36:00;95309.09;;;29.64;39.54
34185;BME280;20454;48.100;11.776;2022-08-21T13:38:30;95307.44;;;30.11;39.55
34185;BME280;20454;48.100;11.776;2022-08-21T13:44:02;95299.72;;;30.08;39.63
34185;BME280;20454;48.100;11.776;2022-08-21T13:46:32;95303.41;;;29.28;41.52
34185;BME280;20454;48.100;11.776;2022-08-21T13:49:01;95298.13;;;28.40;44.01
34185;BME280;20454;48.100;11.776;2022-08-21T13:51:29;95306.53;;;27.65;44.38
34185;BME280;20454;48.100;11.776;2022-08-21T13:53:57;95301.25;;;27.41;45.35
34185;BME280;20454;48.100;11.776;2022-08-21T13:56:27;95299.25;;;27.38;44.78
34185;BME280;20454;48.100;11.776;2022-08-21T13:58:55;95309.75;;;27.21;44.92
34185;BME280;20454;48.100;11.776;2022-08-21T14:01:36;95307.38;;;27.16;44.97
34185;BME280;20454;48.100;11.776;2022-08-21T14:04:20;95301.69;;;27.13;45.15
34185;BME280;20454;48.100;11.776;2022-08-21T14:06:47;95301.78;;;27.06;45.22
34185;BME280;20454;48.100;11.776;2022-08-21T14:09:30;95302.03;;;26.92;45.10
34185;BME280;20454;48.100;11.776;2022-08-21T14:11:58;95293.88;;;26.64;44.98
34185;BME280;20454;48.100;11.776;2022-08-21T14:14:34;95287.66;;;26.43;46.83
34185;BME280;20454;48.100;11.776;2022-08-21T14:17:13;95295.97;;;26.30;47.37
34185;BME280;20454;48.100;11.776;2022-08-21T14:19:44;95290.44;;;26.16;48.06
34185;BME280;20454;48.100;11.776;2022-08-21T14:22:43;95294.22;;;26.10;48.69
34185;BME280;20454;48.100;11.776;2022-08-21T14:25:30;95290.94;;;26.11;48.21
34185;BME280;20454;48.100;11.776;2022-08-21T14:30:43;95300.00;;;26.03;48.00
34185;BME280;20454;48.100;11.776;2022-08-21T14:33:13;95292.06;;;25.84;47.74
34185;BME280;20454;48.100;11.776;2022-08-21T14:35:40;95297.13;;;25.69;47.79
34185;BME280;20454;48.100;11.776;2022-08-21T14:38:19;95301.44;;;25.44;48.35
34185;BME280;20454;48.100;11.776;2022-08-21T14:40:52;95294.34;;;25.18;49.71
34185;BME280;20454;48.100;11.776;2022-08-21T14:43:19;95296.09;;;25.02;49.54
34185;BME280;20454;48.100;11.776;2022-08-21T14:45:46;95293.75;;;24.93;49.99
34185;BME280;20454;48.100;11.776;2022-08-21T14:48:12;95284.03;;;24.87;50.57
34185;BME280;20454;48.100;11.776;2022-08-21T14:50:39;95301.03;;;24.98;47.86
34185;BME280;20454;48.100;11.776;2022-08-21T14:53:04;95288.44;;;24.95;48.11
34185;BME280;20454;48.100;11.776;2022-08-21T14:55:31;95283.94;;;24.98;49.29
34185;BME280;20454;48.100;11.776;2022-08-21T14:58:17;95295.00;;;24.92;49.69
34185;BME280;20454;48.100;11.776;2022-08-21T15:00:43;95287.69;;;24.88;49.67
34185;BME280;20454;48.100;11.776;2022-08-21T15:03:09;95293.03;;;24.79;49.39
34185;BME280;20454;48.100;11.776;2022-08-21T15:05:35;95292.28;;;24.71;49.59
34185;BME280;20454;48.100;11.776;2022-08-21T15:08:01;95293.16;;;24.65;50.46
34185;BME280;20454;48.100;11.776;2022-08-21T15:10:27;95295.66;;;24.56;50.94
34185;BME280;20454;48.100;11.776;2022-08-21T15:12:55;95285.53;;;24.48;51.61
34185;BME280;20454;48.100;11.776;2022-08-21T15:15:21;95292.06;;;24.38;51.78
34185;BME280;20454;48.100;11.776;2022-08-21T15:17:47;95282.00;;;24.23;52.53
34185;BME280;20454;48.100;11.776;2022-08-21T15:20:12;95290.22;;;24.10;53.47
34185;BME280;20454;48.100;11.776;2022-08-21T15:22:39;95279.69;;;24.00;51.95
34185;BME280;20454;48.100;11.776;2022-08-21T15:25:05;95282.53;;;23.97;50.65
34185;BME280;20454;48.100;11.776;2022-08-21T15:27:31;95281.34;;;23.91;51.60
34185;BME280;20454;48.100;11.776;2022-08-21T15:29:57;95278.13;;;23.82;51.80
34185;BME280;20454;48.100;11.776;2022-08-21T15:32:26;95287.91;;;23.70;52.12
34185;BME280;20454;48.100;11.776;2022-08-21T15:34:55;95279.84;;;23.55;52.67
34185;BME280;20454;48.100;11.776;2022-08-21T15:37:23;95280.66;;;23.52;52.68
34185;BME280;20454;48.100;11.776;2022-08-21T15:39:51;95284.31;;;23.49;52.87
34185;BME280;20454;48.100;11.776;2022-08-21T15:42:18;95280.25;;;23.46;53.24
34185;BME280;20454;48.100;11.776;2022-08-21T15:44:44;95267.72;;;23.44;52.66
34185;BME280;20454;48.100;11.776;2022-08-21T15:47:17;95280.69;;;23.45;52.79
34185;BME280;20454;48.100;11.776;2022-08-21T15:49:43;95276.25;;;23.40;53.02
34185;BME280;20454;48.100;11.776;2022-08-21T15:52:17;95269.75;;;23.33;53.36
34185;BME280;20454;48.100;11.776;2022-08-21T15:54:43;95279.09;;;23.30;53.81
34185;BME280;20454;48.100;11.776;2022-08-21T15:57:12;95279.50;;;23.28;53.72
34185;BME280;20454;48.100;11.776;2022-08-21T15:59:46;95274.63;;;23.29;53.73
34185;BME280;20454;48.100;11.776;2022-08-21T16:02:26;95269.38;;;23.31;53.96
34185;BME280;20454;48.100;11.776;2022-08-21T16:04:52;95272.56;;;23.40;53.08
34185;BME280;20454;48.100;11.776;2022-08-21T16:07:18;95265.25;;;23.49;51.26
34185;BME280;20454;48.100;11.776;2022-08-21T16:09:44;95260.31;;;23.60;51.30
34185;BME280;20454;48.100;11.776;2022-08-21T16:12:17;95274.47;;;23.74;51.61
34185;BME280;20454;48.100;11.776;2022-08-21T16:14:45;95266.75;;;23.82;51.11
34185;BME280;20454;48.100;11.776;2022-08-21T16:17:11;95268.38;;;23.90;50.54
34185;BME280;20454;48.100;11.776;2022-08-21T16:19:37;95257.81;;;23.90;49.51
34185;BME280;20454;48.100;11.776;2022-08-21T16:22:03;95262.66;;;23.97;49.67
34185;BME280;20454;48.100;11.776;2022-08-21T16:24:30;95261.44;;;23.91;49.43
34185;BME280;20454;48.100;11.776;2022-08-21T16:26:56;95264.72;;;23.86;48.41
34185;BME280;20454;48.100;11.776;2022-08-21T16:29:22;95262.28;;;23.81;48.48
34185;BME280;20454;48.100;11.776;2022-08-21T16:31:48;95250.56;;;23.72;48.50
34185;BME280;20454;48.100;11.776;2022-08-21T16:34:17;95257.91;;;23.66;49.20
34185;BME280;20454;48.100;11.776;2022-08-21T16:36:45;95254.66;;;23.60;49.93
34185;BME280;20454;48.100;11.776;2022-08-21T16:39:11;95259.94;;;23.55;50.29